Severn Beach, United Kingdom
Current Conditions -  °F | °C
As of 4:20 AM on Thursday 27 Nov 2014 (Local Time) from EGGD Reporting Station
Moderate Fog Moderate Fog  
Wind Chill: 43°   Ceiling: Unl
Heat Index: 43°   Visibility: 0.31mi
Dew Point: 43°   Wind: 2mph
Humidity: 100%   Direction: 150°SSE
Pressure: 29.65"   Gusts: NA
Location:  51.56°N, 2.66°W
Report Text: EGGD 270420Z 15002KT 0500 R27/0650 FG VV/// 06/06 Q1004
Loading
Personal Weather Stations






























Interactive Weather Map New forecast layout! Learn more

10-Day Weather Forecast

Advertisements
Track Severe Weather on mobile